createdAt,value
2023-01-25T00:00:43.352Z,99816.34
2023-01-25T00:05:14.275Z,99818.06
2023-01-25T00:09:31.879Z,99800.22
2023-01-25T00:13:49.463Z,99795.84
2023-01-25T00:18:07.035Z,99792.06
2023-01-25T00:22:24.640Z,99799.13
2023-01-25T00:26:44.168Z,99795.97
2023-01-25T00:31:07.836Z,99799.22
2023-01-25T00:35:32.370Z,99791.03
2023-01-25T00:39:50.130Z,99776.38
2023-01-25T00:44:08.099Z,99767.97
2023-01-25T00:48:25.124Z,99785.75
2023-01-25T00:52:42.934Z,99790.59
2023-01-25T00:57:00.747Z,99770.81
2023-01-25T01:01:18.481Z,99761.63
2023-01-25T01:05:36.683Z,99764.38
2023-01-25T01:09:54.384Z,99762.00
2023-01-25T01:14:12.291Z,99759.44
2023-01-25T01:18:42.614Z,99756.16
2023-01-25T01:23:00.096Z,99755.13
2023-01-25T01:27:17.822Z,99754.75
2023-01-25T01:31:35.465Z,99730.78
2023-01-25T01:35:53.219Z,99735.38
2023-01-25T01:40:15.767Z,99737.16
2023-01-25T01:44:54.502Z,99717.59
2023-01-25T01:49:22.396Z,99714.53
2023-01-25T01:53:43.585Z,99693.09
2023-01-25T01:58:03.531Z,99698.75
2023-01-25T02:02:21.874Z,99689.97
2023-01-25T02:06:58.348Z,99693.94
2023-01-25T02:11:16.426Z,99687.56
2023-01-25T02:15:47.796Z,99696.34
2023-01-25T02:20:41.243Z,99706.94
2023-01-25T02:25:11.377Z,99704.28
2023-01-25T02:29:30.178Z,99695.41
2023-01-25T02:33:47.828Z,99694.47
2023-01-25T02:38:07.059Z,99692.56
2023-01-25T02:42:25.020Z,99691.28
2023-01-25T02:46:45.166Z,99684.53
2023-01-25T02:51:03.403Z,99685.31
2023-01-25T02:55:20.740Z,99688.03
2023-01-25T02:59:38.421Z,99698.75
2023-01-25T03:03:55.847Z,99696.69
2023-01-25T03:08:13.527Z,99699.94
2023-01-25T03:12:31.102Z,99689.50
2023-01-25T03:16:48.553Z,99679.38
2023-01-25T03:21:08.859Z,99671.84
2023-01-25T03:25:27.153Z,99673.06
2023-01-25T03:29:46.064Z,99676.31
2023-01-25T03:34:03.552Z,99666.03
2023-01-25T03:38:22.164Z,99661.41
2023-01-25T03:42:39.651Z,99659.44
2023-01-25T03:46:57.211Z,99664.31
2023-01-25T03:51:14.806Z,99667.88
2023-01-25T03:55:32.432Z,99663.66
2023-01-25T03:59:50.131Z,99656.84
2023-01-25T04:04:07.599Z,99648.00
2023-01-25T04:08:26.519Z,99639.41
2023-01-25T04:12:44.003Z,99638.94
2023-01-25T04:17:05.623Z,99633.94
2023-01-25T04:21:23.300Z,99632.56
2023-01-25T04:25:41.421Z,99636.16
2023-01-25T04:29:58.841Z,99635.03
2023-01-25T04:34:16.470Z,99638.31
2023-01-25T04:38:34.020Z,99638.09
2023-01-25T04:42:51.724Z,99628.34
2023-01-25T04:47:09.209Z,99617.66
2023-01-25T04:51:26.738Z,99620.88
2023-01-25T04:55:48.118Z,99622.00
2023-01-25T05:00:10.456Z,99614.06
2023-01-25T05:04:28.041Z,99606.34
2023-01-25T05:08:45.610Z,99607.75
2023-01-25T05:13:03.118Z,99607.72
2023-01-25T05:17:20.753Z,99607.56
2023-01-25T05:21:56.833Z,99608.16
2023-01-25T05:26:34.074Z,99607.06
2023-01-25T05:30:51.542Z,99594.25
2023-01-25T05:35:09.900Z,99591.75
2023-01-25T05:39:27.592Z,99589.22
2023-01-25T05:43:49.381Z,99593.41
2023-01-25T05:48:07.046Z,99593.84
2023-01-25T05:52:24.467Z,99592.06
2023-01-25T05:56:43.390Z,99602.03
2023-01-25T06:01:06.835Z,99599.03
2023-01-25T06:05:24.434Z,99597.28
2023-01-25T06:09:41.938Z,99598.63
2023-01-25T06:13:59.459Z,99596.56
2023-01-25T06:18:16.936Z,99604.56
2023-01-25T06:22:34.557Z,99594.16
2023-01-25T06:26:52.135Z,99593.88
2023-01-25T06:31:18.464Z,99585.69
2023-01-25T06:35:36.097Z,99584.97
2023-01-25T06:39:54.344Z,99579.34
2023-01-25T06:44:11.647Z,99583.53
2023-01-25T06:48:30.686Z,99583.44
2023-01-25T06:52:55.155Z,99585.78
2023-01-25T06:57:12.950Z,99588.38
2023-01-25T07:01:30.885Z,99574.72
2023-01-25T07:05:49.783Z,99574.97
2023-01-25T07:10:07.888Z,99574.63
2023-01-25T07:14:24.969Z,99586.94
2023-01-25T07:18:42.872Z,99567.34
2023-01-25T07:23:02.241Z,99567.25
2023-01-25T07:27:19.854Z,99553.44
2023-01-25T07:31:37.560Z,99560.47
2023-01-25T07:35:59.545Z,99551.84
2023-01-25T07:40:17.301Z,99552.09
2023-01-25T07:44:34.853Z,99558.97
2023-01-25T07:48:54.194Z,99570.22
2023-01-25T07:53:11.765Z,99560.16
2023-01-25T07:57:29.310Z,99553.34
2023-01-25T08:01:46.900Z,99543.31
2023-01-25T08:06:05.934Z,99542.09
2023-01-25T08:10:23.442Z,99542.31
2023-01-25T08:14:41.088Z,99530.91
2023-01-25T08:19:01.369Z,99532.16
2023-01-25T08:23:20.655Z,99533.69
2023-01-25T08:27:38.289Z,99532.97
2023-01-25T08:31:55.769Z,99529.06
2023-01-25T08:36:15.558Z,99527.66
2023-01-25T08:40:35.194Z,99524.06
2023-01-25T08:44:54.521Z,99523.88
2023-01-25T08:49:12.054Z,99534.31
2023-01-25T08:53:31.946Z,99518.47
2023-01-25T08:57:49.664Z,99507.00
2023-01-25T09:02:07.481Z,99507.22
2023-01-25T09:06:25.218Z,99509.44
2023-01-25T09:10:42.878Z,99504.66
2023-01-25T09:15:00.320Z,99503.63
2023-01-25T09:19:18.087Z,99501.59
2023-01-25T09:23:44.418Z,99492.97
2023-01-25T09:28:12.224Z,99481.31
2023-01-25T09:32:29.824Z,99478.31
2023-01-25T09:36:47.929Z,99472.09
2023-01-25T09:41:28.135Z,99481.72
2023-01-25T09:45:46.275Z,99474.09
2023-01-25T09:50:26.377Z,99482.94
2023-01-25T09:54:47.547Z,99467.50
2023-01-25T09:59:14.822Z,99464.47
2023-01-25T10:03:55.581Z,99451.63
2023-01-25T10:08:29.090Z,99455.13
2023-01-25T10:12:46.821Z,99447.28
2023-01-25T10:17:14.328Z,99432.41
2023-01-25T10:21:40.489Z,99432.72
2023-01-25T10:26:00.351Z,99413.44
2023-01-25T10:30:41.769Z,99411.44
2023-01-25T10:35:29.238Z,99411.66
2023-01-25T10:40:02.063Z,99406.44
2023-01-25T10:44:28.179Z,99402.63
2023-01-25T10:48:45.954Z,99406.22
2023-01-25T10:53:03.524Z,99394.97
2023-01-25T10:57:23.104Z,99394.97
2023-01-25T11:01:40.930Z,99384.94
2023-01-25T11:05:59.550Z,99374.91
2023-01-25T11:10:38.159Z,99368.25
2023-01-25T11:14:55.644Z,99359.44
2023-01-25T11:19:33.038Z,99340.34
2023-01-25T11:24:12.087Z,99334.69
2023-01-25T11:28:29.569Z,99339.13
2023-01-25T11:32:47.929Z,99328.66
2023-01-25T11:37:26.799Z,99316.41
2023-01-25T11:42:33.822Z,99310.84
2023-01-25T11:47:23.541Z,99299.56
2023-01-25T11:51:54.950Z,99284.28
2023-01-25T11:57:11.708Z,99289.72
2023-01-25T12:01:51.582Z,99283.50
2023-01-25T12:06:23.808Z,99282.06
2023-01-25T12:11:04.635Z,99287.28
2023-01-25T12:15:38.633Z,99280.47
2023-01-25T12:20:33.270Z,99269.00
2023-01-25T12:25:03.628Z,99249.31
2023-01-25T12:29:51.270Z,99250.97
2023-01-25T12:34:19.804Z,99241.94
2023-01-25T12:39:00.518Z,99243.53
2023-01-25T12:43:40.145Z,99230.53
2023-01-25T12:48:03.548Z,99221.13
2023-01-25T12:52:26.568Z,99227.16
2023-01-25T12:57:19.626Z,99222.91
2023-01-25T13:02:01.500Z,99221.28
2023-01-25T13:06:37.182Z,99207.59
2023-01-25T13:11:11.675Z,99199.22
2023-01-25T13:15:40.455Z,99198.97
2023-01-25T13:19:58.911Z,99182.53
2023-01-25T13:24:22.670Z,99178.72
2023-01-25T13:28:45.904Z,99172.88
2023-01-25T13:33:07.461Z,99166.84
2023-01-25T13:37:32.210Z,99167.66
2023-01-25T13:42:18.981Z,99162.00
2023-01-25T13:46:37.064Z,99156.19
2023-01-25T13:51:11.204Z,99151.00
2023-01-25T13:55:30.073Z,99147.78
2023-01-25T13:59:49.632Z,99146.75
2023-01-25T14:04:12.361Z,99132.28
2023-01-25T14:08:31.453Z,99143.53
2023-01-25T14:12:49.847Z,99129.50
2023-01-25T14:17:21.067Z,99123.09
2023-01-25T14:21:39.804Z,99126.66
2023-01-25T14:25:59.740Z,99122.63
2023-01-25T14:30:22.703Z,99124.06
2023-01-25T14:34:40.447Z,99121.22
2023-01-25T14:38:58.309Z,99110.22
2023-01-25T14:43:17.706Z,99113.44
2023-01-25T14:47:35.915Z,99098.91
2023-01-25T14:52:14.734Z,99105.22
2023-01-25T14:56:34.119Z,99103.03
2023-01-25T15:00:58.031Z,99103.34
2023-01-25T15:05:16.227Z,99088.59
2023-01-25T15:09:42.501Z,99077.44
2023-01-25T15:14:13.786Z,99070.81
2023-01-25T15:18:56.081Z,99068.59
2023-01-25T15:23:31.583Z,99070.75
2023-01-25T15:27:49.483Z,99067.34
2023-01-25T15:32:20.927Z,99060.72
2023-01-25T15:36:38.567Z,99057.31
2023-01-25T15:41:01.533Z,99051.69
2023-01-25T15:50:01.719Z,99058.97
2023-01-25T15:54:19.400Z,99050.03
2023-01-25T15:58:41.115Z,99038.41
2023-01-25T16:02:58.679Z,99039.41
2023-01-25T16:07:55.377Z,99025.75
2023-01-25T16:12:29.111Z,99025.81
2023-01-25T16:16:53.194Z,99019.63
2023-01-25T16:21:13.860Z,99031.25
2023-01-25T16:25:31.523Z,99021.44
2023-01-25T16:29:48.986Z,99005.44
2023-01-25T16:34:06.936Z,99007.97
2023-01-25T16:38:24.364Z,99000.16
2023-01-25T16:42:42.067Z,98995.16
2023-01-25T16:46:59.725Z,98987.88
2023-01-25T16:51:24.919Z,98985.09
2023-01-25T16:55:42.648Z,98976.97
2023-01-25T17:00:02.837Z,98976.66
2023-01-25T17:04:20.862Z,98971.81
2023-01-25T17:08:38.529Z,98965.16
2023-01-25T17:12:55.699Z,98970.78
2023-01-25T17:17:13.182Z,98958.97
2023-01-25T17:21:32.780Z,98959.22
2023-01-25T17:25:50.227Z,98956.19
2023-01-25T17:30:09.303Z,98934.47
2023-01-25T17:34:27.090Z,98937.25
2023-01-25T17:38:44.985Z,98929.63
2023-01-25T17:43:04.320Z,98932.22
2023-01-25T17:47:21.865Z,98932.22
2023-01-25T17:51:39.629Z,98935.06
2023-01-25T17:56:03.486Z,98938.47
2023-01-25T18:00:21.394Z,98934.16
2023-01-25T18:04:39.519Z,98913.19
2023-01-25T18:09:03.105Z,98915.63
2023-01-25T18:13:20.807Z,98897.25
2023-01-25T18:17:39.365Z,98886.94
2023-01-25T18:21:57.582Z,98883.75
2023-01-25T18:26:18.409Z,98882.56
2023-01-25T18:30:41.606Z,98876.63
2023-01-25T18:34:59.675Z,98874.88
2023-01-25T18:39:17.204Z,98868.22
2023-01-25T18:43:35.974Z,98873.03
2023-01-25T18:47:53.694Z,98879.47
2023-01-25T18:52:12.128Z,98864.03
2023-01-25T18:56:31.840Z,98862.25
2023-01-25T19:00:49.246Z,98854.31
2023-01-25T19:05:07.600Z,98843.31
2023-01-25T19:09:25.887Z,98849.75
2023-01-25T19:13:44.774Z,98845.97
2023-01-25T19:18:02.327Z,98843.50
2023-01-25T19:22:20.419Z,98834.88
2023-01-25T19:26:38.136Z,98829.47
2023-01-25T19:30:56.205Z,98828.88
2023-01-25T19:35:13.753Z,98821.44
2023-01-25T19:39:31.348Z,98833.50
2023-01-25T19:43:54.264Z,98826.22
2023-01-25T19:48:11.787Z,98819.81
2023-01-25T19:52:29.524Z,98822.31
2023-01-25T19:56:49.579Z,98823.19
2023-01-25T20:01:23.129Z,98814.22
2023-01-25T20:05:40.658Z,98799.50
2023-01-25T20:09:58.315Z,98805.34
2023-01-25T20:14:16.067Z,98805.78
2023-01-25T20:18:34.542Z,98799.47
2023-01-25T20:22:53.395Z,98794.19
2023-01-25T20:27:10.958Z,98794.59
2023-01-25T20:31:37.762Z,98779.38
2023-01-25T20:36:05.471Z,98772.25
2023-01-25T20:40:23.113Z,98771.41
2023-01-25T20:44:40.511Z,98776.44
2023-01-25T20:48:58.066Z,98769.22
2023-01-25T20:53:16.625Z,98762.97
2023-01-25T20:57:34.111Z,98761.44
2023-01-25T21:01:51.780Z,98766.19
2023-01-25T21:06:10.018Z,98756.03
2023-01-25T21:10:27.561Z,98751.50
2023-01-25T21:14:45.087Z,98743.09
2023-01-25T21:19:07.236Z,98741.44
2023-01-25T21:23:24.680Z,98733.38
2023-01-25T21:27:42.741Z,98731.56
2023-01-25T21:32:00.245Z,98723.97
2023-01-25T21:36:19.354Z,98730.41
2023-01-25T21:40:36.804Z,98726.44
2023-01-25T21:45:13.112Z,98717.72
2023-01-25T21:49:49.445Z,98727.00
2023-01-25T21:54:07.083Z,98720.44
2023-01-25T21:58:24.530Z,98720.16
2023-01-25T22:02:43.790Z,98721.72
2023-01-25T22:07:05.054Z,98717.16
2023-01-25T22:11:23.032Z,98710.94
2023-01-25T22:15:40.648Z,98710.38
2023-01-25T22:19:58.263Z,98710.78
2023-01-25T22:24:16.492Z,98715.88
2023-01-25T22:28:55.376Z,98720.88
2023-01-25T22:33:12.974Z,98717.31
2023-01-25T22:37:30.588Z,98697.41
2023-01-25T22:41:48.078Z,98700.91
2023-01-25T22:46:08.815Z,98701.63
2023-01-25T22:50:26.278Z,98696.06
2023-01-25T22:54:43.842Z,98687.97
2023-01-25T22:59:01.928Z,98672.31
2023-01-25T23:03:19.552Z,98667.25
2023-01-25T23:07:37.052Z,98659.06
2023-01-25T23:11:54.612Z,98655.22
2023-01-25T23:16:12.232Z,98651.22
2023-01-25T23:20:30.341Z,98642.94
2023-01-25T23:24:47.884Z,98636.53
2023-01-25T23:29:09.253Z,98630.94
2023-01-25T23:33:27.326Z,98625.50
2023-01-25T23:37:47.068Z,98625.19
2023-01-25T23:42:04.841Z,98616.78
2023-01-25T23:46:23.819Z,98614.09
2023-01-25T23:50:41.354Z,98595.09
2023-01-25T23:54:58.971Z,98599.09
2023-01-25T23:59:16.372Z,98599.34
